Cassiopea — LYTA — position and weather

sailwx.info

Track history (hours):
 
Tides and Currents Weather Stations Pressure Air Temp Water Temp Dewpoint Dewpoint Depression Visibility Wind Speed Wind Dir Waves Ship Positions

Cassiopea

Last reported at 2018-Jun-17 09:32 UTC. Time now 2018-Jun-22 18:47 UTC.
Position N 27°41' W 015°20'.

Length 134 m; draft 5.3 m.

Type: Cargo ship. MMSI: 277397000.

Date/timePositionNaut miles runAvg speedWind from/ knotsBaromVisibWave heightAir tempDewpointWater temp
2018-Jun-17 09:32N 27°41' W 015°20'117.6
2018-Jun-17 09:30N 27°42' W 015°19'917.3
2018-Jun-17 09:00N 27°50' W 015°16'816.4
2018-Jun-17 08:30N 27°58' W 015°15'714.6
2018-Jun-17 08:00N 28°04' W 015°20'510.7
2018-Jun-17 07:30N 28°07' W 015°25'0 0.2
2018-Jun-17 07:00N 28°07' W 015°25'0 0.0
2018-Jun-17 06:30N 28°07' W 015°25'0 0.0
2018-Jun-17 06:00N 28°07' W 015°25'0 0.0
2018-Jun-17 05:30N 28°07' W 015°25'0 0.0
2018-Jun-17 05:00N 28°07' W 015°25'0 0.0
2018-Jun-17 04:30N 28°07' W 015°25'0 0.0
2018-Jun-17 04:00N 28°07' W 015°25'0 0.1
2018-Jun-17 03:30N 28°07' W 015°25'0 0.1
2018-Jun-17 02:48N 28°07' W 015°25'0 0.0
2018-Jun-17 02:21N 28°07' W 015°25'0 0.1
2018-Jun-17 02:00N 28°07' W 015°25'1 1.7
2018-Jun-17 01:30N 28°07' W 015°24'0 0.0
2018-Jun-17 01:00N 28°07' W 015°24'0 0.0
2018-Jun-17 00:30N 28°07' W 015°24'1 1.1
2018-Jun-17 00:00N 28°07' W 015°24'4 8.4
2018-Jun-16 23:30N 28°08' W 015°19'4 8.3
2018-Jun-16 23:00N 28°09' W 015°14'815.8
2018-Jun-16 22:30N 28°10' W 015°06'815.4
2018-Jun-16 22:00N 28°14' W 014°58'917.8
2018-Jun-16 21:30N 28°23' W 014°55'917.5
2018-Jun-16 21:00N 28°31' W 014°52'917.3
2018-Jun-16 20:30N 28°39' W 014°49'917.3
2018-Jun-16 20:00N 28°48' W 014°46'917.1
2018-Jun-16 19:30N 28°56' W 014°43'917.3
2018-Jun-16 19:00N 29°04' W 014°40'917.1
2018-Jun-16 18:30N 29°12' W 014°37'817.1
2018-Jun-16 18:00N 29°20' W 014°35'917.1
2018-Jun-16 17:30N 29°29' W 014°31'917.0
2018-Jun-16 17:00N 29°37' W 014°29'817.0
2018-Jun-16 16:30N 29°45' W 014°26'816.9
2018-Jun-16 16:00N 29°53' W 014°23'817.0
2018-Jun-16 15:30N 30°01' W 014°20'18511.7
2018-Jun-15 23:41N 32°58' W 013°15'317.6
2018-Jun-15 23:31N 33°01' W 013°14'917.5
2018-Jun-15 23:00N 33°09' W 013°11'8417.2
2018-Jun-15 18:09N 34°29' W 012°42'517.1
2018-Jun-15 17:50N 34°35' W 012°40'717.3
2018-Jun-15 17:27N 34°41' W 012°37'817.3
2018-Jun-15 17:00N 34°48' W 012°35'1117.3
2018-Jun-15 16:23N 34°59' W 012°31'817.3
2018-Jun-15 15:56N 35°06' W 012°28'1517.1
2018-Jun-15 15:03N 35°21' W 012°23'116.9
2018-Jun-15 15:00N 35°21' W 012°23'1017.4
2018-Jun-15 14:24N 35°31' W 012°19'1817.5
2018-Jun-15 13:23N 35°48' W 012°12'2617.6
2018-Jun-15 11:56N 36°13' W 012°03'717.4
2018-Jun-15 11:30N 36°20' W 011°60'917.3
2018-Jun-15 11:00N 36°28' W 011°56'917.4
2018-Jun-15 10:30N 36°36' W 011°53'1117.4
2018-Jun-15 09:51N 36°47' W 011°48'817.4
2018-Jun-15 09:25N 36°54' W 011°45'717.4
2018-Jun-15 09:00N 37°01' W 011°42'  
Track history (hours):
 
Tides and Currents Weather Stations Pressure Air Temp Water Temp Dewpoint Dewpoint Depression Visibility Wind Speed Wind Dir Waves Ship Positions

Cassiopea

Last reported at 2018-Jun-17 09:32 UTC. Time now 2018-Jun-22 18:47 UTC.
Position N 27°41' W 015°20'.

Length 134 m; draft 5.3 m.

Type: Cargo ship. MMSI: 277397000.

Date/timePositionNaut miles runAvg speedWind from/ knotsBaromVisibWave heightAir tempDewpointWater temp
2018-Jun-17 09:32N 27°41' W 015°20'117.6
2018-Jun-17 09:30N 27°42' W 015°19'917.3
2018-Jun-17 09:00N 27°50' W 015°16'816.4
2018-Jun-17 08:30N 27°58' W 015°15'714.6
2018-Jun-17 08:00N 28°04' W 015°20'510.7
2018-Jun-17 07:30N 28°07' W 015°25'0 0.2
2018-Jun-17 07:00N 28°07' W 015°25'0 0.0
2018-Jun-17 06:30N 28°07' W 015°25'0 0.0
2018-Jun-17 06:00N 28°07' W 015°25'0 0.0
2018-Jun-17 05:30N 28°07' W 015°25'0 0.0
2018-Jun-17 05:00N 28°07' W 015°25'0 0.0
2018-Jun-17 04:30N 28°07' W 015°25'0 0.0
2018-Jun-17 04:00N 28°07' W 015°25'0 0.1
2018-Jun-17 03:30N 28°07' W 015°25'0 0.1
2018-Jun-17 02:48N 28°07' W 015°25'0 0.0
2018-Jun-17 02:21N 28°07' W 015°25'0 0.1
2018-Jun-17 02:00N 28°07' W 015°25'1 1.7
2018-Jun-17 01:30N 28°07' W 015°24'0 0.0
2018-Jun-17 01:00N 28°07' W 015°24'0 0.0
2018-Jun-17 00:30N 28°07' W 015°24'1 1.1
2018-Jun-17 00:00N 28°07' W 015°24'4 8.4
2018-Jun-16 23:30N 28°08' W 015°19'4 8.3
2018-Jun-16 23:00N 28°09' W 015°14'815.8
2018-Jun-16 22:30N 28°10' W 015°06'815.4
2018-Jun-16 22:00N 28°14' W 014°58'917.8
2018-Jun-16 21:30N 28°23' W 014°55'917.5
2018-Jun-16 21:00N 28°31' W 014°52'917.3
2018-Jun-16 20:30N 28°39' W 014°49'917.3
2018-Jun-16 20:00N 28°48' W 014°46'917.1
2018-Jun-16 19:30N 28°56' W 014°43'917.3
2018-Jun-16 19:00N 29°04' W 014°40'917.1
2018-Jun-16 18:30N 29°12' W 014°37'817.1
2018-Jun-16 18:00N 29°20' W 014°35'917.1
2018-Jun-16 17:30N 29°29' W 014°31'917.0
2018-Jun-16 17:00N 29°37' W 014°29'817.0
2018-Jun-16 16:30N 29°45' W 014°26'816.9
2018-Jun-16 16:00N 29°53' W 014°23'817.0
2018-Jun-16 15:30N 30°01' W 014°20'18511.7
2018-Jun-15 23:41N 32°58' W 013°15'317.6
2018-Jun-15 23:31N 33°01' W 013°14'917.5
2018-Jun-15 23:00N 33°09' W 013°11'8417.2
2018-Jun-15 18:09N 34°29' W 012°42'517.1
2018-Jun-15 17:50N 34°35' W 012°40'717.3
2018-Jun-15 17:27N 34°41' W 012°37'817.3
2018-Jun-15 17:00N 34°48' W 012°35'1117.3
2018-Jun-15 16:23N 34°59' W 012°31'817.3
2018-Jun-15 15:56N 35°06' W 012°28'1517.1
2018-Jun-15 15:03N 35°21' W 012°23'116.9
2018-Jun-15 15:00N 35°21' W 012°23'1017.4
2018-Jun-15 14:24N 35°31' W 012°19'1817.5
2018-Jun-15 13:23N 35°48' W 012°12'2617.6
2018-Jun-15 11:56N 36°13' W 012°03'717.4
2018-Jun-15 11:30N 36°20' W 011°60'917.3
2018-Jun-15 11:00N 36°28' W 011°56'917.4
2018-Jun-15 10:30N 36°36' W 011°53'1117.4
2018-Jun-15 09:51N 36°47' W 011°48'817.4
2018-Jun-15 09:25N 36°54' W 011°45'717.4
2018-Jun-15 09:00N 37°01' W 011°42'  

Dump ship's entire track history